sensor_id;sensor_type;location;lat;lon;timestamp;P1;durP1;ratioP1;P2;durP2;ratioP2
25331;SDS011;13284;52.748;13.452;2022-07-03T00:01:22;3.20;;;3.00;;
25331;SDS011;13284;52.748;13.452;2022-07-03T00:03:48;3.67;;;3.37;;
25331;SDS011;13284;52.748;13.452;2022-07-03T00:06:13;4.00;;;3.60;;
25331;SDS011;13284;52.748;13.452;2022-07-03T00:08:39;4.27;;;3.97;;
25331;SDS011;13284;52.748;13.452;2022-07-03T00:11:05;3.53;;;3.23;;
25331;SDS011;13284;52.748;13.452;2022-07-03T00:13:31;3.90;;;3.60;;
25331;SDS011;13284;52.748;13.452;2022-07-03T00:15:56;4.93;;;3.37;;
25331;SDS011;13284;52.748;13.452;2022-07-03T00:18:22;4.70;;;4.30;;
25331;SDS011;13284;52.748;13.452;2022-07-03T00:20:48;3.83;;;3.53;;
25331;SDS011;13284;52.748;13.452;2022-07-03T00:23:16;4.07;;;3.67;;
25331;SDS011;13284;52.748;13.452;2022-07-03T00:25:43;4.00;;;3.70;;
25331;SDS011;13284;52.748;13.452;2022-07-03T00:28:09;3.37;;;3.13;;
25331;SDS011;13284;52.748;13.452;2022-07-03T00:30:35;3.93;;;3.53;;
25331;SDS011;13284;52.748;13.452;2022-07-03T00:33:01;3.90;;;3.50;;
25331;SDS011;13284;52.748;13.452;2022-07-03T00:35:28;4.90;;;3.77;;
25331;SDS011;13284;52.748;13.452;2022-07-03T00:37:57;3.50;;;3.20;;
25331;SDS011;13284;52.748;13.452;2022-07-03T00:40:23;3.83;;;3.53;;
25331;SDS011;13284;52.748;13.452;2022-07-03T00:42:49;4.70;;;4.10;;
25331;SDS011;13284;52.748;13.452;2022-07-03T00:45:19;3.90;;;3.57;;
25331;SDS011;13284;52.748;13.452;2022-07-03T00:47:45;3.87;;;3.43;;
25331;SDS011;13284;52.748;13.452;2022-07-03T00:50:11;4.03;;;3.67;;
25331;SDS011;13284;52.748;13.452;2022-07-03T00:52:37;3.73;;;3.47;;
25331;SDS011;13284;52.748;13.452;2022-07-03T00:55:06;3.80;;;3.50;;
25331;SDS011;13284;52.748;13.452;2022-07-03T00:57:35;4.30;;;4.00;;
25331;SDS011;13284;52.748;13.452;2022-07-03T01:00:10;4.30;;;4.00;;
25331;SDS011;13284;52.748;13.452;2022-07-03T01:02:46;4.97;;;4.57;;
25331;SDS011;13284;52.748;13.452;2022-07-03T01:05:36;4.00;;;3.70;;
25331;SDS011;13284;52.748;13.452;2022-07-03T01:08:21;4.03;;;3.73;;
25331;SDS011;13284;52.748;13.452;2022-07-03T01:13:47;5.70;;;3.53;;
25331;SDS011;13284;52.748;13.452;2022-07-03T01:16:47;4.60;;;4.20;;
25331;SDS011;13284;52.748;13.452;2022-07-03T01:22:12;5.00;;;4.50;;
25331;SDS011;13284;52.748;13.452;2022-07-03T01:30:27;4.90;;;4.50;;
25331;SDS011;13284;52.748;13.452;2022-07-03T01:33:02;4.53;;;4.23;;
25331;SDS011;13284;52.748;13.452;2022-07-03T01:35:40;4.40;;;3.73;;
25331;SDS011;13284;52.748;13.452;2022-07-03T01:38:09;4.80;;;4.40;;
25331;SDS011;13284;52.748;13.452;2022-07-03T01:40:37;4.17;;;3.80;;
25331;SDS011;13284;52.748;13.452;2022-07-03T01:43:06;4.20;;;3.80;;
25331;SDS011;13284;52.748;13.452;2022-07-03T01:45:35;4.10;;;3.80;;
25331;SDS011;13284;52.748;13.452;2022-07-03T01:48:03;5.67;;;4.60;;
25331;SDS011;13284;52.748;13.452;2022-07-03T01:50:30;4.57;;;4.17;;
25331;SDS011;13284;52.748;13.452;2022-07-03T01:52:58;5.20;;;4.70;;
25331;SDS011;13284;52.748;13.452;2022-07-03T01:55:27;4.37;;;4.07;;
25331;SDS011;13284;52.748;13.452;2022-07-03T01:57:56;4.70;;;4.30;;
25331;SDS011;13284;52.748;13.452;2022-07-03T02:00:23;4.40;;;4.00;;
25331;SDS011;13284;52.748;13.452;2022-07-03T02:03:00;4.60;;;4.20;;
25331;SDS011;13284;52.748;13.452;2022-07-03T02:05:29;4.93;;;4.43;;
25331;SDS011;13284;52.748;13.452;2022-07-03T02:10:46;5.53;;;4.27;;
25331;SDS011;13284;52.748;13.452;2022-07-03T02:13:23;4.90;;;4.40;;
25331;SDS011;13284;52.748;13.452;2022-07-03T02:15:52;4.10;;;3.80;;
25331;SDS011;13284;52.748;13.452;2022-07-03T02:18:25;4.47;;;4.10;;
25331;SDS011;13284;52.748;13.452;2022-07-03T02:23:49;5.30;;;4.90;;
25331;SDS011;13284;52.748;13.452;2022-07-03T02:26:32;4.90;;;4.50;;
25331;SDS011;13284;52.748;13.452;2022-07-03T02:29:03;4.87;;;4.47;;
25331;SDS011;13284;52.748;13.452;2022-07-03T02:31:33;5.60;;;4.33;;
25331;SDS011;13284;52.748;13.452;2022-07-03T02:34:04;5.20;;;4.40;;
25331;SDS011;13284;52.748;13.452;2022-07-03T02:36:31;4.73;;;4.33;;
25331;SDS011;13284;52.748;13.452;2022-07-03T02:38:59;5.50;;;5.00;;
25331;SDS011;13284;52.748;13.452;2022-07-03T02:41:40;4.73;;;4.23;;
25331;SDS011;13284;52.748;13.452;2022-07-03T02:44:29;5.60;;;5.10;;
25331;SDS011;13284;52.748;13.452;2022-07-03T02:50:08;5.33;;;4.80;;
25331;SDS011;13284;52.748;13.452;2022-07-03T02:55:11;4.93;;;4.53;;
25331;SDS011;13284;52.748;13.452;2022-07-03T02:58:10;6.30;;;4.90;;
25331;SDS011;13284;52.748;13.452;2022-07-03T03:01:09;5.73;;;5.03;;
25331;SDS011;13284;52.748;13.452;2022-07-03T03:09:47;4.80;;;4.40;;
25331;SDS011;13284;52.748;13.452;2022-07-03T03:12:13;5.90;;;5.30;;
25331;SDS011;13284;52.748;13.452;2022-07-03T03:14:43;4.77;;;4.37;;
25331;SDS011;13284;52.748;13.452;2022-07-03T03:17:17;5.90;;;5.10;;
25331;SDS011;13284;52.748;13.452;2022-07-03T03:19:45;5.23;;;4.73;;
25331;SDS011;13284;52.748;13.452;2022-07-03T03:22:28;4.70;;;4.30;;
25331;SDS011;13284;52.748;13.452;2022-07-03T03:25:23;7.00;;;6.30;;
25331;SDS011;13284;52.748;13.452;2022-07-03T03:27:49;4.77;;;4.40;;
25331;SDS011;13284;52.748;13.452;2022-07-03T03:30:15;5.17;;;4.67;;
25331;SDS011;13284;52.748;13.452;2022-07-03T03:32:41;5.13;;;4.63;;
25331;SDS011;13284;52.748;13.452;2022-07-03T03:35:08;5.60;;;5.10;;
25331;SDS011;13284;52.748;13.452;2022-07-03T03:37:34;5.80;;;5.30;;
25331;SDS011;13284;52.748;13.452;2022-07-03T03:39:59;5.60;;;4.90;;
25331;SDS011;13284;52.748;13.452;2022-07-03T03:42:27;5.67;;;5.17;;
25331;SDS011;13284;52.748;13.452;2022-07-03T03:44:53;5.97;;;5.47;;
25331;SDS011;13284;52.748;13.452;2022-07-03T03:47:18;5.63;;;4.33;;
25331;SDS011;13284;52.748;13.452;2022-07-03T03:49:44;5.20;;;4.70;;
25331;SDS011;13284;52.748;13.452;2022-07-03T03:52:10;5.17;;;4.63;;
25331;SDS011;13284;52.748;13.452;2022-07-03T03:54:35;4.77;;;4.37;;
25331;SDS011;13284;52.748;13.452;2022-07-03T03:59:43;4.30;;;3.90;;
25331;SDS011;13284;52.748;13.452;2022-07-03T04:02:09;5.40;;;4.90;;
25331;SDS011;13284;52.748;13.452;2022-07-03T04:04:34;8.67;;;5.50;;
25331;SDS011;13284;52.748;13.452;2022-07-03T04:07:00;4.47;;;4.10;;
25331;SDS011;13284;52.748;13.452;2022-07-03T04:09:25;6.73;;;6.00;;
25331;SDS011;13284;52.748;13.452;2022-07-03T04:11:51;5.00;;;4.60;;
25331;SDS011;13284;52.748;13.452;2022-07-03T04:14:16;5.33;;;4.93;;
25331;SDS011;13284;52.748;13.452;2022-07-03T04:16:42;5.33;;;4.70;;
25331;SDS011;13284;52.748;13.452;2022-07-03T04:19:08;4.90;;;4.53;;
25331;SDS011;13284;52.748;13.452;2022-07-03T04:21:33;5.30;;;4.80;;
25331;SDS011;13284;52.748;13.452;2022-07-03T04:23:59;5.70;;;5.00;;
25331;SDS011;13284;52.748;13.452;2022-07-03T04:26:24;4.90;;;4.50;;
25331;SDS011;13284;52.748;13.452;2022-07-03T04:28:50;5.30;;;4.90;;
25331;SDS011;13284;52.748;13.452;2022-07-03T04:31:15;5.67;;;4.83;;
25331;SDS011;13284;52.748;13.452;2022-07-03T04:33:41;5.63;;;5.13;;
25331;SDS011;13284;52.748;13.452;2022-07-03T04:36:06;5.10;;;4.70;;
25331;SDS011;13284;52.748;13.452;2022-07-03T04:38:32;5.70;;;5.30;;
25331;SDS011;13284;52.748;13.452;2022-07-03T04:40:57;5.37;;;4.87;;
25331;SDS011;13284;52.748;13.452;2022-07-03T04:43:23;5.80;;;5.30;;
25331;SDS011;13284;52.748;13.452;2022-07-03T04:45:48;5.40;;;5.00;;
25331;SDS011;13284;52.748;13.452;2022-07-03T04:48:14;4.83;;;4.07;;
25331;SDS011;13284;52.748;13.452;2022-07-03T04:50:40;4.90;;;4.50;;
25331;SDS011;13284;52.748;13.452;2022-07-03T04:53:05;5.20;;;4.80;;
25331;SDS011;13284;52.748;13.452;2022-07-03T04:55:31;8.17;;;6.87;;
25331;SDS011;13284;52.748;13.452;2022-07-03T04:57:56;5.60;;;5.10;;
25331;SDS011;13284;52.748;13.452;2022-07-03T05:00:22;5.77;;;4.87;;
25331;SDS011;13284;52.748;13.452;2022-07-03T05:02:47;5.57;;;4.77;;
25331;SDS011;13284;52.748;13.452;2022-07-03T05:05:13;5.17;;;4.77;;
25331;SDS011;13284;52.748;13.452;2022-07-03T05:07:38;5.67;;;5.27;;
25331;SDS011;13284;52.748;13.452;2022-07-03T05:10:04;6.50;;;5.00;;
25331;SDS011;13284;52.748;13.452;2022-07-03T05:12:30;5.90;;;5.40;;
25331;SDS011;13284;52.748;13.452;2022-07-03T05:14:55;8.33;;;6.57;;
25331;SDS011;13284;52.748;13.452;2022-07-03T05:17:21;5.80;;;5.40;;
25331;SDS011;13284;52.748;13.452;2022-07-03T05:19:47;5.23;;;4.83;;
25331;SDS011;13284;52.748;13.452;2022-07-03T05:22:33;5.13;;;4.73;;
25331;SDS011;13284;52.748;13.452;2022-07-03T05:24:58;5.60;;;5.00;;
25331;SDS011;13284;52.748;13.452;2022-07-03T05:27:24;5.13;;;4.83;;
25331;SDS011;13284;52.748;13.452;2022-07-03T05:29:49;5.50;;;5.07;;
25331;SDS011;13284;52.748;13.452;2022-07-03T05:32:15;5.43;;;5.03;;
25331;SDS011;13284;52.748;13.452;2022-07-03T05:34:40;4.90;;;4.50;;
25331;SDS011;13284;52.748;13.452;2022-07-03T05:37:06;6.03;;;5.53;;
25331;SDS011;13284;52.748;13.452;2022-07-03T05:39:31;6.20;;;5.70;;
25331;SDS011;13284;52.748;13.452;2022-07-03T05:41:56;5.67;;;5.17;;
25331;SDS011;13284;52.748;13.452;2022-07-03T05:44:22;5.40;;;5.00;;
25331;SDS011;13284;52.748;13.452;2022-07-03T05:46:47;4.70;;;4.30;;
25331;SDS011;13284;52.748;13.452;2022-07-03T05:49:13;5.30;;;4.90;;
25331;SDS011;13284;52.748;13.452;2022-07-03T05:51:39;4.93;;;4.63;;
25331;SDS011;13284;52.748;13.452;2022-07-03T05:54:04;5.20;;;4.80;;
25331;SDS011;13284;52.748;13.452;2022-07-03T05:56:30;4.90;;;4.50;;
25331;SDS011;13284;52.748;13.452;2022-07-03T05:58:55;4.60;;;4.23;;
25331;SDS011;13284;52.748;13.452;2022-07-03T06:01:21;4.87;;;4.50;;
25331;SDS011;13284;52.748;13.452;2022-07-03T06:03:48;6.77;;;4.00;;
25331;SDS011;13284;52.748;13.452;2022-07-03T06:06:14;4.77;;;4.37;;
25331;SDS011;13284;52.748;13.452;2022-07-03T06:08:39;4.90;;;4.50;;
25331;SDS011;13284;52.748;13.452;2022-07-03T06:11:05;4.93;;;4.53;;
25331;SDS011;13284;52.748;13.452;2022-07-03T06:13:30;4.90;;;4.50;;
25331;SDS011;13284;52.748;13.452;2022-07-03T06:15:56;5.10;;;4.60;;
25331;SDS011;13284;52.748;13.452;2022-07-03T06:18:21;6.40;;;4.37;;
25331;SDS011;13284;52.748;13.452;2022-07-03T06:20:47;5.23;;;4.73;;
25331;SDS011;13284;52.748;13.452;2022-07-03T06:23:12;4.33;;;4.03;;
25331;SDS011;13284;52.748;13.452;2022-07-03T06:25:38;5.20;;;4.00;;
25331;SDS011;13284;52.748;13.452;2022-07-03T06:28:03;5.07;;;4.60;;
25331;SDS011;13284;52.748;13.452;2022-07-03T06:30:29;4.10;;;3.80;;
25331;SDS011;13284;52.748;13.452;2022-07-03T06:32:54;4.63;;;4.17;;
25331;SDS011;13284;52.748;13.452;2022-07-03T06:35:20;4.30;;;4.00;;
25331;SDS011;13284;52.748;13.452;2022-07-03T06:37:45;4.63;;;4.23;;
25331;SDS011;13284;52.748;13.452;2022-07-03T06:40:11;5.50;;;5.00;;
25331;SDS011;13284;52.748;13.452;2022-07-03T06:42:36;4.50;;;4.10;;
25331;SDS011;13284;52.748;13.452;2022-07-03T06:45:02;4.13;;;3.80;;
25331;SDS011;13284;52.748;13.452;2022-07-03T06:47:28;3.90;;;3.60;;
25331;SDS011;13284;52.748;13.452;2022-07-03T06:49:53;4.27;;;3.97;;
25331;SDS011;13284;52.748;13.452;2022-07-03T06:52:18;4.00;;;3.67;;
25331;SDS011;13284;52.748;13.452;2022-07-03T06:54:44;4.00;;;3.70;;
25331;SDS011;13284;52.748;13.452;2022-07-03T06:57:10;4.43;;;4.03;;
25331;SDS011;13284;52.748;13.452;2022-07-03T06:59:36;4.30;;;4.00;;
25331;SDS011;13284;52.748;13.452;2022-07-03T07:02:02;3.73;;;3.43;;
25331;SDS011;13284;52.748;13.452;2022-07-03T07:04:27;4.10;;;3.80;;
25331;SDS011;13284;52.748;13.452;2022-07-03T07:06:53;4.17;;;3.87;;
25331;SDS011;13284;52.748;13.452;2022-07-03T07:09:18;3.80;;;3.50;;
25331;SDS011;13284;52.748;13.452;2022-07-03T07:11:44;3.67;;;3.40;;
25331;SDS011;13284;52.748;13.452;2022-07-03T07:14:09;4.70;;;4.40;;
25331;SDS011;13284;52.748;13.452;2022-07-03T07:16:35;3.80;;;3.60;;
25331;SDS011;13284;52.748;13.452;2022-07-03T07:19:00;4.13;;;3.83;;
25331;SDS011;13284;52.748;13.452;2022-07-03T07:21:26;4.33;;;3.93;;
25331;SDS011;13284;52.748;13.452;2022-07-03T07:23:51;3.90;;;3.60;;
25331;SDS011;13284;52.748;13.452;2022-07-03T07:26:17;3.70;;;3.50;;
25331;SDS011;13284;52.748;13.452;2022-07-03T07:28:45;3.50;;;3.30;;
25331;SDS011;13284;52.748;13.452;2022-07-03T07:31:11;4.73;;;4.20;;
25331;SDS011;13284;52.748;13.452;2022-07-03T07:33:36;3.90;;;3.50;;
25331;SDS011;13284;52.748;13.452;2022-07-03T07:36:02;4.60;;;3.50;;
25331;SDS011;13284;52.748;13.452;2022-07-03T07:38:27;3.40;;;3.20;;
25331;SDS011;13284;52.748;13.452;2022-07-03T07:40:53;3.10;;;2.90;;
25331;SDS011;13284;52.748;13.452;2022-07-03T07:43:18;3.73;;;3.43;;
25331;SDS011;13284;52.748;13.452;2022-07-03T07:45:44;11.27;;;4.60;;
25331;SDS011;13284;52.748;13.452;2022-07-03T07:48:09;3.33;;;3.10;;
25331;SDS011;13284;52.748;13.452;2022-07-03T07:50:35;3.50;;;3.20;;
25331;SDS011;13284;52.748;13.452;2022-07-03T07:53:01;3.67;;;3.13;;
25331;SDS011;13284;52.748;13.452;2022-07-03T07:55:26;3.40;;;3.10;;
25331;SDS011;13284;52.748;13.452;2022-07-03T07:57:52;4.80;;;3.20;;
25331;SDS011;13284;52.748;13.452;2022-07-03T08:00:18;4.80;;;3.93;;
25331;SDS011;13284;52.748;13.452;2022-07-03T08:02:44;3.73;;;3.43;;
25331;SDS011;13284;52.748;13.452;2022-07-03T08:05:29;4.03;;;2.70;;
25331;SDS011;13284;52.748;13.452;2022-07-03T08:08:11;3.23;;;3.03;;
25331;SDS011;13284;52.748;13.452;2022-07-03T08:10:42;3.60;;;3.40;;
25331;SDS011;13284;52.748;13.452;2022-07-03T08:13:09;3.57;;;3.20;;
25331;SDS011;13284;52.748;13.452;2022-07-03T08:15:35;3.80;;;3.43;;
25331;SDS011;13284;52.748;13.452;2022-07-03T08:18:01;3.20;;;3.00;;
25331;SDS011;13284;52.748;13.452;2022-07-03T08:20:27;3.87;;;3.47;;
25331;SDS011;13284;52.748;13.452;2022-07-03T08:22:53;4.37;;;3.23;;
25331;SDS011;13284;52.748;13.452;2022-07-03T08:25:19;3.43;;;3.13;;
25331;SDS011;13284;52.748;13.452;2022-07-03T08:27:44;3.57;;;2.73;;
25331;SDS011;13284;52.748;13.452;2022-07-03T08:30:10;3.40;;;3.20;;
25331;SDS011;13284;52.748;13.452;2022-07-03T08:32:39;3.17;;;2.93;;
25331;SDS011;13284;52.748;13.452;2022-07-03T08:35:05;3.43;;;3.17;;
25331;SDS011;13284;52.748;13.452;2022-07-03T08:37:31;3.40;;;3.20;;
25331;SDS011;13284;52.748;13.452;2022-07-03T08:39:57;3.10;;;2.90;;
25331;SDS011;13284;52.748;13.452;2022-07-03T08:42:22;3.20;;;3.00;;
25331;SDS011;13284;52.748;13.452;2022-07-03T08:44:49;3.20;;;2.90;;
25331;SDS011;13284;52.748;13.452;2022-07-03T08:47:16;3.40;;;2.97;;
25331;SDS011;13284;52.748;13.452;2022-07-03T08:49:42;2.83;;;2.63;;
25331;SDS011;13284;52.748;13.452;2022-07-03T08:52:09;3.27;;;3.07;;
25331;SDS011;13284;52.748;13.452;2022-07-03T08:54:36;4.27;;;3.17;;
25331;SDS011;13284;52.748;13.452;2022-07-03T08:57:02;3.13;;;2.93;;
25331;SDS011;13284;52.748;13.452;2022-07-03T08:59:32;3.23;;;3.03;;
25331;SDS011;13284;52.748;13.452;2022-07-03T09:02:02;3.20;;;3.00;;
25331;SDS011;13284;52.748;13.452;2022-07-03T09:04:32;3.00;;;2.80;;
25331;SDS011;13284;52.748;13.452;2022-07-03T09:06:58;3.30;;;3.00;;
25331;SDS011;13284;52.748;13.452;2022-07-03T09:09:25;3.30;;;3.00;;
25331;SDS011;13284;52.748;13.452;2022-07-03T09:11:51;3.23;;;3.00;;
25331;SDS011;13284;52.748;13.452;2022-07-03T09:14:16;4.47;;;2.90;;
25331;SDS011;13284;52.748;13.452;2022-07-03T09:16:42;3.60;;;3.30;;
25331;SDS011;13284;52.748;13.452;2022-07-03T09:19:08;3.40;;;3.20;;
25331;SDS011;13284;52.748;13.452;2022-07-03T09:21:41;5.70;;;3.67;;
25331;SDS011;13284;52.748;13.452;2022-07-03T09:24:08;3.60;;;3.30;;
25331;SDS011;13284;52.748;13.452;2022-07-03T09:26:34;3.80;;;3.50;;
25331;SDS011;13284;52.748;13.452;2022-07-03T09:29:01;3.67;;;3.37;;
25331;SDS011;13284;52.748;13.452;2022-07-03T09:31:28;3.90;;;3.60;;
25331;SDS011;13284;52.748;13.452;2022-07-03T09:33:55;3.43;;;3.10;;
25331;SDS011;13284;52.748;13.452;2022-07-03T09:36:44;4.20;;;3.90;;
25331;SDS011;13284;52.748;13.452;2022-07-03T09:39:31;3.30;;;3.10;;
25331;SDS011;13284;52.748;13.452;2022-07-03T09:42:09;3.77;;;3.47;;
25331;SDS011;13284;52.748;13.452;2022-07-03T09:49:53;3.03;;;2.83;;
25331;SDS011;13284;52.748;13.452;2022-07-03T09:52:29;3.70;;;3.40;;
25331;SDS011;13284;52.748;13.452;2022-07-03T09:57:36;3.37;;;3.17;;
25331;SDS011;13284;52.748;13.452;2022-07-03T10:00:21;3.50;;;3.30;;
25331;SDS011;13284;52.748;13.452;2022-07-03T10:03:04;2.70;;;2.60;;
25331;SDS011;13284;52.748;13.452;2022-07-03T10:05:37;3.60;;;3.40;;
25331;SDS011;13284;52.748;13.452;2022-07-03T10:08:11;3.37;;;3.07;;
25331;SDS011;13284;52.748;13.452;2022-07-03T10:10:43;3.23;;;2.93;;
25331;SDS011;13284;52.748;13.452;2022-07-03T10:13:10;3.10;;;2.90;;
25331;SDS011;13284;52.748;13.452;2022-07-03T10:15:37;2.70;;;2.50;;
25331;SDS011;13284;52.748;13.452;2022-07-03T10:18:07;3.57;;;3.00;;
25331;SDS011;13284;52.748;13.452;2022-07-03T10:23:04;4.00;;;3.70;;
25331;SDS011;13284;52.748;13.452;2022-07-03T10:25:30;2.90;;;2.73;;
25331;SDS011;13284;52.748;13.452;2022-07-03T10:27:56;2.90;;;2.77;;
25331;SDS011;13284;52.748;13.452;2022-07-03T10:30:22;3.40;;;3.20;;
25331;SDS011;13284;52.748;13.452;2022-07-03T10:32:50;3.43;;;3.23;;
25331;SDS011;13284;52.748;13.452;2022-07-03T10:35:18;3.63;;;3.43;;
25331;SDS011;13284;52.748;13.452;2022-07-03T10:40:31;3.80;;;3.50;;
25331;SDS011;13284;52.748;13.452;2022-07-03T10:43:29;3.50;;;3.30;;
25331;SDS011;13284;52.748;13.452;2022-07-03T10:46:17;3.63;;;3.40;;
25331;SDS011;13284;52.748;13.452;2022-07-03T10:51:20;2.80;;;2.60;;
25331;SDS011;13284;52.748;13.452;2022-07-03T10:53:46;3.47;;;3.03;;
25331;SDS011;13284;52.748;13.452;2022-07-03T10:56:12;2.97;;;2.77;;
25331;SDS011;13284;52.748;13.452;2022-07-03T10:58:57;2.83;;;2.73;;
25331;SDS011;13284;52.748;13.452;2022-07-03T11:01:27;4.97;;;3.10;;
25331;SDS011;13284;52.748;13.452;2022-07-03T11:03:59;2.47;;;2.33;;
25331;SDS011;13284;52.748;13.452;2022-07-03T11:09:13;3.07;;;2.87;;
25331;SDS011;13284;52.748;13.452;2022-07-03T11:11:40;2.77;;;2.57;;
25331;SDS011;13284;52.748;13.452;2022-07-03T11:14:20;3.70;;;2.73;;
25331;SDS011;13284;52.748;13.452;2022-07-03T11:17:15;3.00;;;2.80;;
25331;SDS011;13284;52.748;13.452;2022-07-03T11:19:49;3.37;;;3.17;;
25331;SDS011;13284;52.748;13.452;2022-07-03T11:22:37;2.90;;;2.70;;
25331;SDS011;13284;52.748;13.452;2022-07-03T11:25:13;2.80;;;2.53;;
25331;SDS011;13284;52.748;13.452;2022-07-03T11:27:39;3.53;;;2.90;;
25331;SDS011;13284;52.748;13.452;2022-07-03T11:30:05;3.20;;;2.97;;
25331;SDS011;13284;52.748;13.452;2022-07-03T11:32:43;3.03;;;2.83;;
25331;SDS011;13284;52.748;13.452;2022-07-03T11:38:22;3.00;;;2.80;;
25331;SDS011;13284;52.748;13.452;2022-07-03T11:40:50;2.50;;;2.40;;
25331;SDS011;13284;52.748;13.452;2022-07-03T11:43:17;3.20;;;3.00;;
25331;SDS011;13284;52.748;13.452;2022-07-03T11:45:43;2.60;;;2.47;;
25331;SDS011;13284;52.748;13.452;2022-07-03T11:48:24;3.27;;;3.07;;
25331;SDS011;13284;52.748;13.452;2022-07-03T11:50:51;3.23;;;2.97;;
25331;SDS011;13284;52.748;13.452;2022-07-03T11:55:46;2.73;;;2.63;;
25331;SDS011;13284;52.748;13.452;2022-07-03T11:58:12;3.10;;;2.80;;
25331;SDS011;13284;52.748;13.452;2022-07-03T12:00:38;3.00;;;2.80;;
25331;SDS011;13284;52.748;13.452;2022-07-03T12:03:03;2.80;;;2.60;;
25331;SDS011;13284;52.748;13.452;2022-07-03T12:05:29;2.87;;;2.77;;
25331;SDS011;13284;52.748;13.452;2022-07-03T12:08:02;3.00;;;2.80;;
25331;SDS011;13284;52.748;13.452;2022-07-03T12:10:36;3.40;;;3.20;;
25331;SDS011;13284;52.748;13.452;2022-07-03T12:13:17;2.50;;;2.40;;
25331;SDS011;13284;52.748;13.452;2022-07-03T12:15:47;2.83;;;2.63;;
25331;SDS011;13284;52.748;13.452;2022-07-03T12:18:13;2.50;;;2.40;;
25331;SDS011;13284;52.748;13.452;2022-07-03T12:20:39;3.00;;;2.80;;
25331;SDS011;13284;52.748;13.452;2022-07-03T12:23:05;2.87;;;2.67;;
25331;SDS011;13284;52.748;13.452;2022-07-03T12:25:31;5.13;;;2.53;;
25331;SDS011;13284;52.748;13.452;2022-07-03T12:27:56;2.43;;;2.33;;
25331;SDS011;13284;52.748;13.452;2022-07-03T12:30:22;2.57;;;2.37;;
25331;SDS011;13284;52.748;13.452;2022-07-03T12:32:50;2.87;;;2.67;;
25331;SDS011;13284;52.748;13.452;2022-07-03T12:35:20;3.00;;;2.80;;
25331;SDS011;13284;52.748;13.452;2022-07-03T12:37:47;2.93;;;2.73;;
25331;SDS011;13284;52.748;13.452;2022-07-03T12:40:12;2.60;;;2.40;;
25331;SDS011;13284;52.748;13.452;2022-07-03T12:42:42;4.90;;;2.50;;
25331;SDS011;13284;52.748;13.452;2022-07-03T12:45:10;2.40;;;2.30;;
25331;SDS011;13284;52.748;13.452;2022-07-03T12:47:40;2.40;;;2.30;;
25331;SDS011;13284;52.748;13.452;2022-07-03T12:50:07;2.40;;;2.30;;
25331;SDS011;13284;52.748;13.452;2022-07-03T12:52:34;2.93;;;2.73;;
25331;SDS011;13284;52.748;13.452;2022-07-03T12:55:24;2.80;;;2.70;;
25331;SDS011;13284;52.748;13.452;2022-07-03T12:58:10;2.80;;;2.70;;
25331;SDS011;13284;52.748;13.452;2022-07-03T13:00:56;2.80;;;2.60;;
25331;SDS011;13284;52.748;13.452;2022-07-03T13:03:29;2.70;;;2.60;;
25331;SDS011;13284;52.748;13.452;2022-07-03T13:05:56;3.00;;;2.70;;
25331;SDS011;13284;52.748;13.452;2022-07-03T13:08:21;2.70;;;2.50;;
25331;SDS011;13284;52.748;13.452;2022-07-03T13:10:56;3.20;;;3.00;;
25331;SDS011;13284;52.748;13.452;2022-07-03T13:13:23;2.40;;;2.30;;
25331;SDS011;13284;52.748;13.452;2022-07-03T13:15:49;3.00;;;2.80;;
25331;SDS011;13284;52.748;13.452;2022-07-03T13:18:14;2.90;;;2.70;;
25331;SDS011;13284;52.748;13.452;2022-07-03T13:20:40;2.53;;;2.43;;
25331;SDS011;13284;52.748;13.452;2022-07-03T13:23:06;4.77;;;4.37;;
25331;SDS011;13284;52.748;13.452;2022-07-03T13:25:33;3.10;;;2.90;;
25331;SDS011;13284;52.748;13.452;2022-07-03T13:28:07;3.10;;;2.90;;
25331;SDS011;13284;52.748;13.452;2022-07-03T13:30:36;2.30;;;2.20;;
25331;SDS011;13284;52.748;13.452;2022-07-03T13:33:03;2.70;;;2.50;;
25331;SDS011;13284;52.748;13.452;2022-07-03T13:35:29;2.40;;;2.30;;
25331;SDS011;13284;52.748;13.452;2022-07-03T13:37:55;2.67;;;2.47;;
25331;SDS011;13284;52.748;13.452;2022-07-03T13:40:21;2.30;;;2.20;;
25331;SDS011;13284;52.748;13.452;2022-07-03T13:42:47;2.70;;;2.60;;
25331;SDS011;13284;52.748;13.452;2022-07-03T13:45:12;3.37;;;3.17;;
25331;SDS011;13284;52.748;13.452;2022-07-03T13:47:38;3.10;;;2.80;;
25331;SDS011;13284;52.748;13.452;2022-07-03T13:50:04;2.60;;;2.40;;
25331;SDS011;13284;52.748;13.452;2022-07-03T13:52:29;2.87;;;2.67;;
25331;SDS011;13284;52.748;13.452;2022-07-03T13:54:55;3.27;;;3.07;;
25331;SDS011;13284;52.748;13.452;2022-07-03T13:57:20;3.73;;;3.00;;
25331;SDS011;13284;52.748;13.452;2022-07-03T13:59:46;3.07;;;2.87;;
25331;SDS011;13284;52.748;13.452;2022-07-03T14:02:12;3.30;;;3.00;;
25331;SDS011;13284;52.748;13.452;2022-07-03T14:04:38;3.10;;;2.90;;
25331;SDS011;13284;52.748;13.452;2022-07-03T14:07:04;2.97;;;2.87;;
25331;SDS011;13284;52.748;13.452;2022-07-03T14:09:29;2.83;;;2.63;;
25331;SDS011;13284;52.748;13.452;2022-07-03T14:11:55;3.20;;;3.00;;
25331;SDS011;13284;52.748;13.452;2022-07-03T14:14:21;3.20;;;3.00;;
25331;SDS011;13284;52.748;13.452;2022-07-03T14:16:46;3.10;;;2.90;;
25331;SDS011;13284;52.748;13.452;2022-07-03T14:19:11;3.07;;;2.87;;
25331;SDS011;13284;52.748;13.452;2022-07-03T14:21:37;2.60;;;2.50;;
25331;SDS011;13284;52.748;13.452;2022-07-03T14:24:03;3.13;;;2.93;;
25331;SDS011;13284;52.748;13.452;2022-07-03T14:26:29;3.47;;;2.87;;
25331;SDS011;13284;52.748;13.452;2022-07-03T14:29:13;3.10;;;2.77;;
25331;SDS011;13284;52.748;13.452;2022-07-03T14:31:57;2.77;;;2.57;;
25331;SDS011;13284;52.748;13.452;2022-07-03T14:34:41;2.83;;;2.63;;
25331;SDS011;13284;52.748;13.452;2022-07-03T14:37:07;2.70;;;2.60;;
25331;SDS011;13284;52.748;13.452;2022-07-03T14:39:33;2.83;;;2.73;;
25331;SDS011;13284;52.748;13.452;2022-07-03T14:41:59;2.60;;;2.50;;
25331;SDS011;13284;52.748;13.452;2022-07-03T14:44:25;2.87;;;2.77;;
25331;SDS011;13284;52.748;13.452;2022-07-03T14:46:51;2.93;;;2.73;;
25331;SDS011;13284;52.748;13.452;2022-07-03T14:49:17;2.50;;;2.27;;
25331;SDS011;13284;52.748;13.452;2022-07-03T14:51:44;2.60;;;2.50;;
25331;SDS011;13284;52.748;13.452;2022-07-03T14:54:10;2.63;;;2.53;;
25331;SDS011;13284;52.748;13.452;2022-07-03T14:56:39;3.10;;;2.90;;
25331;SDS011;13284;52.748;13.452;2022-07-03T14:59:07;3.33;;;3.13;;
25331;SDS011;13284;52.748;13.452;2022-07-03T15:01:37;3.10;;;2.90;;
25331;SDS011;13284;52.748;13.452;2022-07-03T15:04:18;2.63;;;2.43;;
25331;SDS011;13284;52.748;13.452;2022-07-03T15:06:47;3.30;;;3.00;;
25331;SDS011;13284;52.748;13.452;2022-07-03T15:09:16;3.07;;;2.87;;
25331;SDS011;13284;52.748;13.452;2022-07-03T15:11:49;3.47;;;3.27;;
25331;SDS011;13284;52.748;13.452;2022-07-03T15:14:37;2.37;;;2.27;;
25331;SDS011;13284;52.748;13.452;2022-07-03T15:17:06;2.83;;;2.63;;
25331;SDS011;13284;52.748;13.452;2022-07-03T15:19:33;3.07;;;2.80;;
25331;SDS011;13284;52.748;13.452;2022-07-03T15:21:59;3.17;;;2.97;;
25331;SDS011;13284;52.748;13.452;2022-07-03T15:24:28;2.80;;;2.60;;
25331;SDS011;13284;52.748;13.452;2022-07-03T15:26:55;3.40;;;2.40;;
25331;SDS011;13284;52.748;13.452;2022-07-03T15:29:22;2.90;;;2.70;;
25331;SDS011;13284;52.748;13.452;2022-07-03T15:31:47;2.87;;;2.70;;
25331;SDS011;13284;52.748;13.452;2022-07-03T15:34:13;2.77;;;2.57;;
25331;SDS011;13284;52.748;13.452;2022-07-03T15:36:46;3.13;;;2.90;;
25331;SDS011;13284;52.748;13.452;2022-07-03T15:39:25;3.00;;;2.80;;